createdAt,value
2023-02-22T00:00:59.665Z,65.96
2023-02-22T00:03:35.115Z,66.07
2023-02-22T00:06:05.976Z,65.87
2023-02-22T00:08:37.282Z,65.97
2023-02-22T00:11:08.686Z,66.21
2023-02-22T00:13:37.909Z,66.30
2023-02-22T00:16:05.803Z,66.21
2023-02-22T00:18:32.726Z,65.96
2023-02-22T00:21:00.923Z,65.98
2023-02-22T00:23:30.556Z,66.06
2023-02-22T00:25:59.747Z,66.18
2023-02-22T00:28:27.291Z,65.89
2023-02-22T00:30:54.842Z,65.92
2023-02-22T00:33:22.781Z,65.98
2023-02-22T00:35:50.155Z,66.31
2023-02-22T00:38:18.993Z,66.28
2023-02-22T00:40:45.934Z,66.06
2023-02-22T00:43:13.794Z,66.05
2023-02-22T00:45:41.713Z,66.34
2023-02-22T00:48:09.891Z,66.25
2023-02-22T00:50:37.516Z,66.22
2023-02-22T00:53:05.864Z,66.14
2023-02-22T00:55:36.568Z,66.07
2023-02-22T00:58:05.429Z,65.70
2023-02-22T01:00:40.083Z,66.01
2023-02-22T01:03:10.803Z,66.19
2023-02-22T01:05:38.847Z,65.90
2023-02-22T01:08:08.942Z,66.31
2023-02-22T01:10:37.935Z,66.36
2023-02-22T01:13:08.813Z,66.38
2023-02-22T01:15:39.144Z,66.42
2023-02-22T01:18:06.415Z,66.16
2023-02-22T01:20:33.684Z,66.03
2023-02-22T01:23:03.571Z,66.06
2023-02-22T01:25:31.929Z,66.45
2023-02-22T01:28:01.013Z,66.09
2023-02-22T01:30:34.923Z,66.41
2023-02-22T01:33:05.702Z,66.41
2023-02-22T01:35:37.058Z,66.69
2023-02-22T01:38:04.005Z,66.76
2023-02-22T01:40:38.384Z,66.48
2023-02-22T01:43:29.569Z,66.41
2023-02-22T01:46:26.321Z,66.09
2023-02-22T01:49:06.497Z,66.42
2023-02-22T01:51:40.652Z,67.45
2023-02-22T01:54:31.538Z,66.72
2023-02-22T01:57:17.929Z,67.31
2023-02-22T01:59:49.701Z,67.28
2023-02-22T02:02:18.763Z,66.78
2023-02-22T02:04:46.361Z,67.30
2023-02-22T02:07:17.339Z,66.45
2023-02-22T02:09:46.900Z,66.69
2023-02-22T02:12:17.124Z,66.79
2023-02-22T02:14:44.553Z,67.40
2023-02-22T02:17:19.321Z,67.02
2023-02-22T02:19:58.841Z,66.68
2023-02-22T02:23:02.067Z,67.11
2023-02-22T02:26:15.512Z,66.14
2023-02-22T02:29:33.605Z,66.17
2023-02-22T02:32:25.669Z,67.50
2023-02-22T02:35:44.143Z,66.80
2023-02-22T02:38:52.382Z,66.85
2023-02-22T02:41:36.183Z,66.66
2023-02-22T02:44:19.536Z,67.14
2023-02-22T02:47:26.365Z,67.67
2023-02-22T02:50:19.569Z,67.46
2023-02-22T02:52:50.817Z,67.99
2023-02-22T02:55:18.814Z,67.74
2023-02-22T02:57:45.779Z,67.72
2023-02-22T03:00:24.446Z,67.26
2023-02-22T03:03:10.844Z,66.81
2023-02-22T03:06:07.937Z,66.56
2023-02-22T03:08:56.997Z,65.88
2023-02-22T03:11:32.094Z,66.11
2023-02-22T03:14:38.566Z,65.55
2023-02-22T03:17:26.773Z,65.32
2023-02-22T03:20:13.210Z,65.46
2023-02-22T03:22:53.208Z,65.89
2023-02-22T03:25:34.072Z,65.46
2023-02-22T03:28:11.434Z,66.14
2023-02-22T03:30:46.851Z,65.98
2023-02-22T03:33:28.686Z,65.93
2023-02-22T03:36:01.128Z,65.72
2023-02-22T03:38:32.454Z,65.90
2023-02-22T03:41:02.216Z,65.74
2023-02-22T03:44:06.615Z,65.19
2023-02-22T03:46:35.885Z,65.88
2023-02-22T03:49:29.702Z,65.30
2023-02-22T03:51:57.696Z,65.97
2023-02-22T03:54:27.365Z,65.98
2023-02-22T03:57:06.739Z,65.79
2023-02-22T03:59:37.945Z,65.98
2023-02-22T04:02:06.384Z,65.94
2023-02-22T04:04:33.343Z,65.77
2023-02-22T04:07:00.686Z,66.06
2023-02-22T04:09:28.831Z,65.90
2023-02-22T04:11:56.322Z,66.13
2023-02-22T04:14:23.989Z,66.00
2023-02-22T04:16:51.086Z,66.35
2023-02-22T04:19:18.117Z,66.03
2023-02-22T04:21:45.080Z,66.17
2023-02-22T04:24:19.134Z,66.08
2023-02-22T04:26:46.162Z,65.99
2023-02-22T04:29:13.223Z,66.00
2023-02-22T04:31:41.816Z,66.14
2023-02-22T04:34:09.658Z,66.19
2023-02-22T04:36:42.240Z,66.13
2023-02-22T04:39:09.589Z,66.03
2023-02-22T04:41:36.598Z,66.23
2023-02-22T04:44:03.600Z,66.08
2023-02-22T04:46:31.715Z,66.11
2023-02-22T04:48:58.953Z,66.67
2023-02-22T04:51:28.703Z,67.01
2023-02-22T04:54:05.322Z,67.27
2023-02-22T04:56:34.561Z,69.10
2023-02-22T04:59:01.618Z,68.37
2023-02-22T05:01:34.753Z,70.01
2023-02-22T05:04:07.462Z,69.48
2023-02-22T05:06:34.583Z,70.21
2023-02-22T05:09:01.565Z,70.43
2023-02-22T05:11:28.947Z,70.42
2023-02-22T05:13:56.053Z,70.71
2023-02-22T05:16:23.228Z,70.64
2023-02-22T05:18:50.168Z,71.42
2023-02-22T05:21:17.366Z,71.10
2023-02-22T05:23:44.443Z,71.02
2023-02-22T05:26:11.803Z,71.61
2023-02-22T05:28:39.047Z,71.01
2023-02-22T05:31:07.341Z,70.71
2023-02-22T05:33:34.517Z,70.59
2023-02-22T05:36:01.474Z,70.71
2023-02-22T05:38:28.576Z,72.03
2023-02-22T05:40:56.827Z,71.34
2023-02-22T05:43:23.777Z,70.96
2023-02-22T05:45:50.693Z,71.88
2023-02-22T05:48:17.661Z,71.67
2023-02-22T05:50:44.617Z,71.01
2023-02-22T05:53:11.538Z,71.82
2023-02-22T05:55:38.468Z,72.73
2023-02-22T05:58:05.806Z,72.23
2023-02-22T06:00:33.227Z,72.91
2023-02-22T06:03:04.207Z,73.37
2023-02-22T06:05:32.097Z,72.79
2023-02-22T06:08:01.046Z,72.92
2023-02-22T06:10:28.500Z,73.41
2023-02-22T06:12:56.463Z,73.35
2023-02-22T06:15:25.684Z,72.82
2023-02-22T06:17:54.478Z,73.40
2023-02-22T06:20:24.109Z,72.27
2023-02-22T06:22:53.430Z,74.14
2023-02-22T06:25:25.044Z,72.54
2023-02-22T06:27:52.377Z,72.47
2023-02-22T06:30:23.722Z,72.57
2023-02-22T06:32:51.027Z,71.91
2023-02-22T06:35:18.726Z,72.34
2023-02-22T06:37:45.756Z,72.74
2023-02-22T06:40:14.122Z,72.73
2023-02-22T06:42:41.391Z,72.47
2023-02-22T06:45:09.674Z,72.01
2023-02-22T06:47:41.300Z,71.69
2023-02-22T06:50:30.140Z,72.12
2023-02-22T06:52:58.610Z,71.97
2023-02-22T06:55:31.964Z,72.38
2023-02-22T06:57:59.948Z,72.86
2023-02-22T07:00:29.244Z,72.99
2023-02-22T07:02:56.957Z,72.85
2023-02-22T07:05:25.298Z,72.89
2023-02-22T07:07:55.558Z,74.23
2023-02-22T07:10:29.295Z,73.83
2023-02-22T07:12:56.306Z,73.12
2023-02-22T07:15:25.686Z,72.88
2023-02-22T07:17:53.346Z,74.08
2023-02-22T07:20:22.142Z,73.76
2023-02-22T07:22:50.042Z,73.13
2023-02-22T07:25:17.419Z,73.18
2023-02-22T07:27:44.501Z,73.00
2023-02-22T07:30:32.165Z,73.50
2023-02-22T07:33:02.016Z,73.03
2023-02-22T07:35:44.387Z,73.93
2023-02-22T07:38:11.304Z,73.40
2023-02-22T07:40:39.397Z,72.99
2023-02-22T07:43:27.699Z,73.14
2023-02-22T07:45:57.204Z,73.09
2023-02-22T07:48:27.537Z,73.19
2023-02-22T07:50:54.683Z,73.84
2023-02-22T07:53:30.150Z,73.19
2023-02-22T07:56:05.793Z,73.21
2023-02-22T07:58:33.301Z,73.74
2023-02-22T08:01:03.774Z,73.49
2023-02-22T08:03:36.425Z,73.37
2023-02-22T08:06:06.403Z,73.68
2023-02-22T08:08:34.383Z,73.27
2023-02-22T08:11:01.554Z,73.61
2023-02-22T08:13:28.619Z,73.80
2023-02-22T08:15:56.060Z,73.43
2023-02-22T08:18:24.691Z,73.43
2023-02-22T08:20:52.784Z,73.64
2023-02-22T08:23:23.408Z,73.67
2023-02-22T08:25:50.807Z,73.27
2023-02-22T08:28:23.197Z,73.53
2023-02-22T08:30:52.048Z,73.54
2023-02-22T08:33:19.715Z,73.01
2023-02-22T08:35:49.466Z,72.58
2023-02-22T08:38:28.863Z,72.54
2023-02-22T08:40:56.121Z,72.29
2023-02-22T08:43:23.900Z,72.43
2023-02-22T08:45:51.762Z,72.40
2023-02-22T08:48:19.977Z,72.42
2023-02-22T08:50:47.048Z,72.20
2023-02-22T08:53:16.130Z,72.50
2023-02-22T08:55:44.486Z,71.88
2023-02-22T08:58:12.533Z,72.14
2023-02-22T09:00:41.194Z,71.82
2023-02-22T09:03:11.836Z,71.70
2023-02-22T09:05:39.155Z,71.49
2023-02-22T09:08:06.402Z,71.74
2023-02-22T09:10:34.829Z,71.46
2023-02-22T09:13:03.838Z,72.04
2023-02-22T09:15:32.139Z,71.95
2023-02-22T09:18:00.230Z,72.02
2023-02-22T09:20:28.873Z,71.86
2023-02-22T09:22:57.018Z,72.12
2023-02-22T09:25:24.240Z,72.29
2023-02-22T09:27:53.388Z,72.15
2023-02-22T09:30:31.781Z,72.23
2023-02-22T09:33:07.047Z,72.03
2023-02-22T09:35:36.040Z,71.67
2023-02-22T09:38:06.222Z,72.19
2023-02-22T09:40:44.699Z,72.15
2023-02-22T09:43:26.558Z,72.35
2023-02-22T09:46:41.933Z,72.22
2023-02-22T09:49:31.205Z,72.19
2023-02-22T09:52:14.212Z,71.97
2023-02-22T09:54:51.669Z,72.48
2023-02-22T09:57:28.856Z,72.41
2023-02-22T10:00:19.999Z,72.61
2023-02-22T10:03:16.304Z,72.86
2023-02-22T10:06:06.444Z,72.46
2023-02-22T10:08:34.432Z,72.53
2023-02-22T10:11:42.644Z,72.63
2023-02-22T10:14:30.420Z,72.54
2023-02-22T10:17:40.250Z,72.80
2023-02-22T10:20:59.839Z,72.79
2023-02-22T10:23:55.217Z,72.81
2023-02-22T10:26:41.836Z,72.49
2023-02-22T10:29:41.702Z,72.92
2023-02-22T10:32:36.165Z,72.76
2023-02-22T10:35:16.161Z,72.15
2023-02-22T10:37:43.304Z,72.89
2023-02-22T10:40:31.942Z,73.09
2023-02-22T10:43:09.485Z,72.99
2023-02-22T10:45:37.047Z,72.78
2023-02-22T10:48:18.305Z,72.77
2023-02-22T10:50:47.254Z,72.49
2023-02-22T10:53:18.651Z,72.60
2023-02-22T10:56:22.079Z,73.38
2023-02-22T10:59:05.839Z,73.06
2023-02-22T11:01:32.724Z,72.24
2023-02-22T11:04:17.967Z,72.41
2023-02-22T11:07:06.865Z,71.61
2023-02-22T11:09:59.966Z,73.38
2023-02-22T11:12:39.661Z,72.92
2023-02-22T11:15:29.646Z,73.63
2023-02-22T11:17:58.793Z,72.42
2023-02-22T11:20:34.445Z,72.54
2023-02-22T11:23:04.433Z,72.55
2023-02-22T11:25:42.473Z,73.78
2023-02-22T11:28:10.681Z,73.12
2023-02-22T11:30:38.319Z,73.00
2023-02-22T11:33:25.706Z,74.44
2023-02-22T11:36:02.166Z,73.05
2023-02-22T11:38:32.531Z,73.06
2023-02-22T11:41:05.349Z,73.87
2023-02-22T11:43:32.517Z,73.48
2023-02-22T11:46:16.880Z,74.02
2023-02-22T11:49:14.042Z,75.64
2023-02-22T11:52:01.210Z,74.30
2023-02-22T11:55:03.022Z,75.25
2023-02-22T11:58:13.910Z,75.29
2023-02-22T12:01:00.741Z,75.77
2023-02-22T12:03:58.829Z,75.85
2023-02-22T12:07:17.337Z,76.87
2023-02-22T12:09:54.802Z,76.19
2023-02-22T12:12:38.848Z,76.25
2023-02-22T12:15:18.357Z,76.03
2023-02-22T12:18:13.092Z,76.32
2023-02-22T12:20:55.528Z,76.01
2023-02-22T12:24:14.285Z,76.84
2023-02-22T12:26:55.097Z,75.11
2023-02-22T12:29:39.130Z,77.18
2023-02-22T12:32:18.325Z,76.51
2023-02-22T12:35:16.808Z,76.31
2023-02-22T12:38:04.664Z,76.72
2023-02-22T12:41:06.003Z,77.05
2023-02-22T12:43:51.624Z,76.25
2023-02-22T12:46:26.893Z,74.70
2023-02-22T12:49:14.432Z,76.17
2023-02-22T12:52:21.353Z,76.69
2023-02-22T12:55:04.203Z,75.85
2023-02-22T12:58:18.231Z,77.23
2023-02-22T13:00:51.266Z,73.69
2023-02-22T13:03:40.957Z,76.54
2023-02-22T13:06:40.444Z,76.11
2023-02-22T13:09:08.954Z,73.92
2023-02-22T13:12:03.048Z,75.79
2023-02-22T13:15:05.308Z,76.59
2023-02-22T13:17:48.302Z,74.80
2023-02-22T13:20:42.066Z,74.64
2023-02-22T13:23:34.857Z,75.03
2023-02-22T13:26:42.035Z,76.11
2023-02-22T13:29:28.337Z,75.50
2023-02-22T13:32:16.972Z,73.53
2023-02-22T13:35:25.916Z,75.84
2023-02-22T13:38:21.689Z,74.28
2023-02-22T13:41:36.055Z,74.33
2023-02-22T13:44:46.926Z,74.79
2023-02-22T13:47:36.270Z,75.14
2023-02-22T13:50:31.477Z,73.07
2023-02-22T13:53:00.609Z,69.99
2023-02-22T13:55:32.896Z,70.87
2023-02-22T13:58:09.647Z,71.79
2023-02-22T14:00:48.840Z,72.12
2023-02-22T14:03:15.680Z,70.12
2023-02-22T14:05:42.686Z,71.26
2023-02-22T14:08:31.515Z,72.54
2023-02-22T14:11:15.203Z,72.84
2023-02-22T14:14:12.128Z,73.90
2023-02-22T14:16:39.152Z,71.39
2023-02-22T14:19:23.385Z,72.99
2023-02-22T14:22:06.707Z,72.63
2023-02-22T14:24:47.442Z,72.51
2023-02-22T14:27:17.445Z,71.15
2023-02-22T14:29:59.545Z,72.14
2023-02-22T14:32:33.818Z,71.78
2023-02-22T14:35:14.262Z,71.09
2023-02-22T14:37:55.620Z,70.66
2023-02-22T14:40:27.800Z,70.55
2023-02-22T14:43:11.257Z,71.26
2023-02-22T14:45:56.395Z,70.40
2023-02-22T14:48:43.492Z,71.70
2023-02-22T14:51:31.310Z,72.06
2023-02-22T14:54:45.036Z,72.16
2023-02-22T14:57:29.555Z,71.55
2023-02-22T15:00:19.920Z,71.00
2023-02-22T15:02:52.173Z,70.00
2023-02-22T15:05:20.748Z,69.80
2023-02-22T15:08:06.175Z,71.33
2023-02-22T15:10:46.767Z,71.03
2023-02-22T15:13:20.113Z,69.70
2023-02-22T15:15:54.608Z,69.58
2023-02-22T15:18:44.779Z,70.63
2023-02-22T15:21:19.169Z,68.68
2023-02-22T15:24:01.462Z,69.56
2023-02-22T15:26:42.480Z,68.85
2023-02-22T15:29:25.275Z,68.82
2023-02-22T15:31:56.310Z,67.31
2023-02-22T15:34:33.352Z,68.51
2023-02-22T15:37:25.036Z,69.10
2023-02-22T15:39:59.221Z,67.38
2023-02-22T15:42:29.700Z,67.26
2023-02-22T15:44:57.924Z,66.83
2023-02-22T15:47:31.866Z,67.00
2023-02-22T15:50:18.077Z,68.56
2023-02-22T15:53:01.766Z,67.22
2023-02-22T15:55:43.612Z,67.35
2023-02-22T15:58:22.219Z,66.65
2023-02-22T16:01:09.130Z,66.68
2023-02-22T16:03:55.106Z,66.26
2023-02-22T16:06:36.845Z,66.81
2023-02-22T16:09:17.220Z,66.87
2023-02-22T16:11:46.326Z,66.22
2023-02-22T16:14:34.938Z,66.98
2023-02-22T16:17:49.475Z,66.38
2023-02-22T16:20:24.779Z,64.66
2023-02-22T16:22:51.774Z,65.00
2023-02-22T16:25:18.710Z,64.90
2023-02-22T16:27:57.454Z,65.69
2023-02-22T16:30:36.652Z,65.80
2023-02-22T16:33:16.437Z,65.47
2023-02-22T16:35:52.394Z,65.29
2023-02-22T16:38:21.194Z,65.00
2023-02-22T16:40:53.806Z,65.28
2023-02-22T16:43:31.417Z,65.80
2023-02-22T16:46:01.518Z,65.13
2023-02-22T16:48:32.721Z,65.28
2023-02-22T16:51:07.216Z,65.20
2023-02-22T16:53:34.462Z,65.01
2023-02-22T16:56:05.737Z,65.46
2023-02-22T16:58:36.542Z,65.01
2023-02-22T17:01:03.477Z,65.04
2023-02-22T17:03:30.399Z,64.62
2023-02-22T17:05:57.406Z,65.11
2023-02-22T17:08:24.582Z,64.98
2023-02-22T17:10:56.578Z,64.56
2023-02-22T17:13:27.477Z,64.87
2023-02-22T17:15:56.362Z,64.87
2023-02-22T17:18:28.543Z,64.78
2023-02-22T17:20:55.878Z,64.65
2023-02-22T17:23:24.260Z,64.45
2023-02-22T17:25:59.124Z,64.73
2023-02-22T17:28:26.973Z,64.52
2023-02-22T17:31:01.053Z,64.77
2023-02-22T17:33:32.796Z,65.02
2023-02-22T17:36:02.122Z,64.74
2023-02-22T17:38:30.351Z,64.62
2023-02-22T17:40:59.673Z,64.80
2023-02-22T17:43:30.369Z,65.15
2023-02-22T17:45:57.446Z,64.58
2023-02-22T17:48:24.722Z,65.06
2023-02-22T17:50:53.011Z,65.13
2023-02-22T17:53:25.279Z,65.40
2023-02-22T17:55:52.677Z,65.42
2023-02-22T17:58:20.122Z,64.96
2023-02-22T18:00:49.869Z,65.39
2023-02-22T18:03:25.312Z,65.25
2023-02-22T18:05:59.703Z,65.19
2023-02-22T18:08:29.928Z,65.55
2023-02-22T18:10:57.257Z,65.16
2023-02-22T18:13:27.047Z,65.13
2023-02-22T18:15:59.731Z,65.35
2023-02-22T18:18:27.193Z,65.39
2023-02-22T18:20:59.213Z,65.10
2023-02-22T18:23:28.938Z,65.25
2023-02-22T18:26:09.560Z,65.47
2023-02-22T18:28:37.347Z,64.82
2023-02-22T18:31:14.329Z,65.10
2023-02-22T18:33:48.385Z,65.09
2023-02-22T18:36:21.547Z,65.52
2023-02-22T18:38:49.701Z,65.33
2023-02-22T18:41:19.353Z,65.12
2023-02-22T18:43:46.700Z,65.46
2023-02-22T18:46:19.765Z,65.08
2023-02-22T18:48:51.308Z,65.23
2023-02-22T18:51:18.359Z,65.23
2023-02-22T18:53:47.680Z,65.74
2023-02-22T18:56:22.524Z,65.25
2023-02-22T18:59:02.229Z,65.19
2023-02-22T19:01:38.610Z,65.59
2023-02-22T19:04:10.052Z,65.50
2023-02-22T19:06:37.564Z,65.43
2023-02-22T19:09:08.324Z,65.73
2023-02-22T19:11:36.327Z,65.98
2023-02-22T19:14:05.103Z,65.54
2023-02-22T19:16:32.790Z,65.58
2023-02-22T19:18:59.932Z,65.71
2023-02-22T19:21:29.416Z,65.67
2023-02-22T19:24:02.713Z,65.96
2023-02-22T19:26:30.684Z,65.84
2023-02-22T19:29:01.297Z,66.27
2023-02-22T19:31:33.217Z,66.33
2023-02-22T19:34:09.797Z,65.94
2023-02-22T19:36:44.818Z,65.94
2023-02-22T19:39:16.403Z,66.02
2023-02-22T19:41:43.390Z,66.42
2023-02-22T19:44:10.852Z,66.73
2023-02-22T19:46:38.257Z,66.15
2023-02-22T19:49:06.288Z,67.25
2023-02-22T19:51:34.047Z,66.78
2023-02-22T19:54:05.030Z,66.56
2023-02-22T19:56:34.845Z,66.76
2023-02-22T19:59:09.178Z,66.73
2023-02-22T20:01:37.382Z,67.73
2023-02-22T20:04:08.256Z,66.74
2023-02-22T20:06:42.462Z,68.44
2023-02-22T20:09:13.843Z,67.81
2023-02-22T20:11:40.785Z,67.48
2023-02-22T20:14:08.240Z,66.95
2023-02-22T20:16:35.679Z,67.45
2023-02-22T20:19:02.758Z,66.93
2023-02-22T20:21:33.591Z,67.88
2023-02-22T20:24:03.794Z,67.66
2023-02-22T20:26:32.785Z,67.55
2023-02-22T20:29:00.558Z,68.14
2023-02-22T20:31:29.522Z,67.80
2023-02-22T20:33:59.628Z,68.65
2023-02-22T20:36:28.896Z,68.46
2023-02-22T20:39:00.252Z,67.90
2023-02-22T20:41:35.682Z,67.68
2023-02-22T20:44:06.811Z,68.07
2023-02-22T20:46:37.419Z,67.80
2023-02-22T20:49:08.073Z,67.59
2023-02-22T20:51:35.378Z,68.81
2023-02-22T20:54:02.499Z,68.26
2023-02-22T20:56:32.320Z,69.19
2023-02-22T20:59:01.959Z,69.46
2023-02-22T21:01:29.416Z,69.22
2023-02-22T21:04:06.183Z,69.66
2023-02-22T21:06:37.047Z,69.19
2023-02-22T21:09:08.590Z,70.09
2023-02-22T21:11:36.120Z,69.48
2023-02-22T21:14:03.699Z,69.99
2023-02-22T21:16:36.896Z,70.08
2023-02-22T21:19:07.306Z,71.08
2023-02-22T21:21:35.538Z,70.63
2023-02-22T21:24:02.650Z,70.52
2023-02-22T21:26:33.102Z,70.64
2023-02-22T21:29:04.618Z,71.16
2023-02-22T21:31:33.264Z,70.49
2023-02-22T21:34:00.860Z,71.22
2023-02-22T21:36:28.803Z,71.34
2023-02-22T21:39:01.795Z,70.46
2023-02-22T21:41:30.874Z,71.73
2023-02-22T21:43:59.384Z,70.81
2023-02-22T21:46:29.028Z,71.06
2023-02-22T21:48:58.377Z,70.69
2023-02-22T21:51:32.328Z,71.63
2023-02-22T21:54:08.241Z,70.53
2023-02-22T21:56:38.595Z,71.69
2023-02-22T21:59:24.070Z,70.96
2023-02-22T22:01:57.581Z,70.46
2023-02-22T22:04:34.851Z,71.25
2023-02-22T22:07:04.505Z,70.63
2023-02-22T22:09:37.664Z,71.62
2023-02-22T22:12:05.606Z,72.13
2023-02-22T22:14:34.517Z,71.32
2023-02-22T22:17:05.335Z,70.39
2023-02-22T22:19:39.010Z,71.45
2023-02-22T22:22:06.918Z,71.40
2023-02-22T22:24:34.866Z,71.95
2023-02-22T22:27:05.501Z,71.50
2023-02-22T22:29:34.227Z,71.37
2023-02-22T22:32:01.820Z,72.20
2023-02-22T22:34:29.564Z,71.33
2023-02-22T22:36:58.072Z,72.16
2023-02-22T22:39:26.329Z,71.26
2023-02-22T22:41:53.299Z,71.18
2023-02-22T22:44:22.218Z,72.04
2023-02-22T22:46:53.414Z,71.18
2023-02-22T22:49:20.751Z,72.10
2023-02-22T22:51:48.141Z,71.78
2023-02-22T22:54:15.073Z,70.91
2023-02-22T22:56:42.149Z,72.83
2023-02-22T22:59:13.055Z,72.10
2023-02-22T23:01:46.714Z,72.32
2023-02-22T23:04:16.794Z,72.08
2023-02-22T23:06:52.386Z,70.95
2023-02-22T23:09:30.317Z,72.38
2023-02-22T23:12:09.927Z,71.68
2023-02-22T23:14:43.971Z,73.38
2023-02-22T23:17:30.785Z,71.36
2023-02-22T23:19:57.725Z,71.64
2023-02-22T23:22:24.649Z,72.11
2023-02-22T23:24:54.464Z,72.15
2023-02-22T23:27:23.647Z,71.49
2023-02-22T23:29:50.588Z,70.99
2023-02-22T23:32:17.603Z,71.90
2023-02-22T23:34:44.592Z,72.77
2023-02-22T23:37:13.944Z,71.66
2023-02-22T23:39:41.112Z,71.65
2023-02-22T23:42:10.868Z,71.69
2023-02-22T23:44:39.745Z,72.02
2023-02-22T23:47:07.243Z,71.16
2023-02-22T23:49:38.355Z,72.05
2023-02-22T23:52:07.420Z,72.12
2023-02-22T23:54:40.297Z,72.43
2023-02-22T23:57:08.747Z,72.18
2023-02-22T23:59:40.185Z,72.33
